Time;durP1;ratioP1;P1;durP2;ratioP2;P2;SDS_P1;SDS_P2;PMS_P1;PMS_P2;Temp;Humidity;BMP_temperature;BMP_pressure;BME280_temperature;BME280_humidity;BME280_pressure;Samples;Min_cycle;Max_cycle;Signal;HPM_P1;HPM_P2
2021/09/29 00:00:22;;;;;;;17.75;7.15;;;;;;;11.32;100.00;100138.70;1614702;87;21140;-70
2021/09/29 00:02:50;;;;;;;20.57;7.70;;;;;;;11.30;100.00;100142.66;1614663;87;21183;-69
2021/09/29 00:05:19;;;;;;;22.87;7.12;;;;;;;11.28;100.00;100148.80;1614734;87;20961;-65
2021/09/29 00:07:48;;;;;;;17.45;6.60;;;;;;;11.28;100.00;100142.20;1615182;87;21580;-71
2021/09/29 00:10:19;;;;;;;18.48;7.10;;;;;;;11.30;100.00;100144.41;1614835;87;21535;-70
2021/09/29 00:12:48;;;;;;;18.90;7.78;;;;;;;11.30;100.00;100146.62;1615076;87;21062;-69
2021/09/29 00:15:17;;;;;;;16.85;7.55;;;;;;;11.29;100.00;100144.85;1614792;87;21501;-69
2021/09/29 00:17:46;;;;;;;18.40;7.95;;;;;;;11.28;100.00;100144.84;1614822;87;20954;-69
2021/09/29 00:20:15;;;;;;;16.30;7.67;;;;;;;11.26;100.00;100145.27;1614864;87;20974;-70
2021/09/29 00:22:43;;;;;;;15.32;7.30;;;;;;;11.24;100.00;100143.94;1614832;87;21038;-70
2021/09/29 00:25:14;;;;;;;21.75;7.25;;;;;;;11.24;100.00;100144.38;1617703;86;20946;-70
2021/09/29 00:27:45;;;;;;;15.08;6.87;;;;;;;11.26;100.00;100138.66;1622068;86;21190;-70
2021/09/29 00:30:15;;;;;;;14.30;7.47;;;;;;;11.26;100.00;100144.83;1622215;86;20946;-70
2021/09/29 00:32:46;;;;;;;20.85;8.15;;;;;;;11.24;100.00;100141.30;1622039;86;21029;-71
2021/09/29 00:35:15;;;;;;;16.62;7.92;;;;;;;11.23;100.00;100140.84;1622170;86;21037;-71
2021/09/29 00:37:42;;;;;;;19.00;7.42;;;;;;;11.22;100.00;100139.52;1622402;86;21468;-71
2021/09/29 00:40:11;;;;;;;16.77;7.10;;;;;;;11.21;100.00;100141.71;1622065;86;21195;-71
2021/09/29 00:42:40;;;;;;;15.15;6.90;;;;;;;11.21;100.00;100140.39;1622248;86;20970;-71
2021/09/29 00:45:09;;;;;;;16.10;7.20;;;;;;;11.21;100.00;100141.71;1622166;86;21076;-70
2021/09/29 00:47:38;;;;;;;19.48;7.50;;;;;;;11.22;100.00;100140.84;1622287;86;21055;-70
2021/09/29 00:50:08;;;;;;;18.57;8.70;;;;;;;11.20;100.00;100139.51;1622180;86;20938;-71
2021/09/29 00:52:40;;;;;;;17.98;8.28;;;;;;;11.20;100.00;100145.23;1622326;86;21453;-69
2021/09/29 00:55:12;;;;;;;19.75;7.72;;;;;;;11.18;100.00;100140.38;1622322;86;21018;-71
2021/09/29 00:57:40;;;;;;;16.20;6.97;;;;;;;11.17;100.00;100149.17;1622204;86;21008;-71
2021/09/29 01:00:10;;;;;;;16.07;6.70;;;;;;;11.17;100.00;100145.20;1622004;86;21143;-71
2021/09/29 01:02:40;;;;;;;16.35;7.15;;;;;;;11.18;100.00;100153.58;1622154;86;21151;-71
2021/09/29 01:05:10;;;;;;;19.45;8.30;;;;;;;11.18;100.00;100153.58;1622163;86;21168;-71
2021/09/29 01:07:55;;;;;;;16.02;7.97;;;;;;;11.16;100.00;100154.88;1575112;86;21732;-71
2021/09/29 01:10:33;;;;;;;20.48;8.20;;;;;;;11.15;100.00;100159.72;1622124;86;20886;-70
2021/09/29 01:13:22;;;;;;;16.15;7.05;;;;;;;11.13;100.00;100152.66;1622133;86;21022;-71
2021/09/29 01:16:01;;;;;;;19.20;7.58;;;;;;;11.11;100.00;100156.61;1622033;86;20898;-70
2021/09/29 01:18:30;;;;;;;15.68;7.40;;;;;;;11.12;100.00;100154.41;1622126;86;21151;-70
2021/09/29 01:21:08;;;;;;;18.70;7.87;;;;;;;11.11;100.00;100151.33;1622208;86;21033;-70
2021/09/29 01:24:14;;;;;;;18.00;8.23;;;;;;;11.09;100.00;100153.07;1622281;86;21508;-69
2021/09/29 01:26:45;;;;;;;18.02;8.08;;;;;;;11.08;100.00;100153.06;1589631;88;21612;-70
2021/09/29 01:29:15;;;;;;;18.23;7.85;;;;;;;11.06;100.00;100158.77;1615764;88;21026;-71
2021/09/29 01:31:45;;;;;;;13.15;7.35;;;;;;;11.04;100.00;100159.64;1615893;88;21045;-70
2021/09/29 01:34:14;;;;;;;18.10;7.72;;;;;;;11.08;100.00;100158.34;1615717;88;21556;-71
2021/09/29 01:36:43;;;;;;;14.87;7.33;;;;;;;11.09;100.00;100159.67;1615934;88;21109;-71
2021/09/29 01:39:16;;;;;;;21.62;8.15;;;;;;;11.08;100.00;100153.95;1615756;88;21597;-70
2021/09/29 01:41:43;;;;;;;14.15;7.55;;;;;;;11.06;100.00;100159.65;1616221;88;21531;-71
2021/09/29 01:44:12;;;;;;;16.67;7.42;;;;;;;11.04;100.00;100150.39;1615730;88;21532;-71
2021/09/29 01:46:41;;;;;;;17.02;7.53;;;;;;;11.04;100.00;100152.15;1590595;88;21043;-70
2021/09/29 01:49:27;;;;;;;14.98;7.35;;;;;;;11.06;100.00;100149.09;1615752;88;21067;-71
2021/09/29 01:51:57;;;;;;;16.77;7.58;;;;;;;11.06;100.00;100154.37;1615643;88;21493;-71
2021/09/29 01:54:26;;;;;;;17.00;7.75;;;;;;;11.04;100.00;100157.43;1615675;88;20975;-71
2021/09/29 01:56:55;;;;;;;13.83;7.70;;;;;;;11.02;100.00;100157.42;1615836;88;21152;-72
2021/09/29 01:59:25;;;;;;;19.30;8.03;;;;;;;10.99;100.00;100153.44;1615565;88;21469;-72
2021/09/29 02:01:55;;;;;;;17.15;7.05;;;;;;;10.98;100.00;100161.34;1615731;88;21469;-71
2021/09/29 02:04:24;;;;;;;14.87;6.83;;;;;;;10.99;100.00;100157.39;1615833;88;21509;-72
2021/09/29 02:06:55;;;;;;;14.33;7.15;;;;;;;11.00;100.00;100167.08;1616097;88;21488;-71
2021/09/29 02:09:26;;;;;;;15.83;6.80;;;;;;;11.00;100.00;100167.08;1615559;88;21176;-71
2021/09/29 02:11:56;;;;;;;16.70;7.42;;;;;;;10.97;100.00;100160.89;1615642;88;21589;-72
2021/09/29 02:14:25;;;;;;;12.35;6.72;;;;;;;10.95;100.00;100157.36;1615721;88;21485;-71
2021/09/29 02:16:55;;;;;;;15.25;6.70;;;;;;;10.95;100.00;100155.60;1615792;88;20998;-71
2021/09/29 02:19:24;;;;;;;15.20;7.17;;;;;;;11.00;100.00;100155.64;1615671;88;20990;-71
2021/09/29 02:21:53;;;;;;;17.87;7.05;;;;;;;11.00;100.00;100151.68;1615811;88;21550;-71
2021/09/29 02:24:22;;;;;;;17.92;7.92;;;;;;;10.99;100.00;100155.19;1615559;88;21518;-71
2021/09/29 02:26:52;;;;;;;15.03;7.10;;;;;;;10.98;100.00;100150.78;1614807;88;21524;-70
2021/09/29 02:29:22;;;;;;;16.70;7.20;;;;;;;10.97;100.00;100159.58;1614856;88;21009;-72
2021/09/29 02:31:54;;;;;;;14.65;6.62;;;;;;;10.96;100.00;100158.69;1614524;88;21662;-68
2021/09/29 02:34:22;;;;;;;14.80;6.40;;;;;;;10.95;100.00;100158.24;1614803;88;21222;-70
2021/09/29 02:36:52;;;;;;;12.05;6.78;;;;;;;10.96;100.00;100157.80;1614718;88;21080;-70
2021/09/29 02:39:20;;;;;;;14.38;6.92;;;;;;;10.95;100.00;100166.16;1614684;88;21053;-69
2021/09/29 02:41:49;;;;;;;14.30;6.25;;;;;;;10.95;100.00;100165.28;1614728;88;21587;-70
2021/09/29 02:44:17;;;;;;;13.85;6.47;;;;;;;10.91;100.00;100167.01;1614801;88;21631;-71
2021/09/29 02:46:46;;;;;;;15.43;6.45;;;;;;;10.88;100.00;100168.30;1614594;88;21184;-72
2021/09/29 02:49:15;;;;;;;17.73;7.10;;;;;;;10.85;100.00;100170.88;1614607;88;21868;-71
2021/09/29 02:51:45;;;;;;;15.05;6.12;;;;;;;10.83;100.00;100167.78;1614571;88;20981;-69
2021/09/29 02:54:13;;;;;;;15.50;6.15;;;;;;;10.84;100.00;100170.44;1614932;88;21017;-68
2021/09/29 02:56:42;;;;;;;14.53;6.55;;;;;;;10.84;100.00;100170.87;1614987;87;21116;-71
2021/09/29 02:59:10;;;;;;;9.55;5.85;;;;;;;10.81;100.00;100166.45;1614869;88;21516;-69
2021/09/29 03:01:42;;;;;;;14.10;6.87;;;;;;;10.78;100.00;100168.17;1614716;88;21021;-71
2021/09/29 03:04:13;;;;;;;14.33;7.15;;;;;;;10.76;100.00;100169.48;1615159;88;21583;-70
2021/09/29 03:06:39;;;;;;;13.58;6.50;;;;;;;10.73;100.00;100168.13;1614637;87;21077;-70
2021/09/29 03:09:11;;;;;;;16.35;7.00;;;;;;;10.70;100.00;100168.10;1614807;88;21017;-71
2021/09/29 03:11:39;;;;;;;17.10;7.15;;;;;;;10.71;100.00;100170.75;1615100;88;21207;-70
2021/09/29 03:14:07;;;;;;;16.10;7.22;;;;;;;10.72;100.00;100171.64;1614938;88;21084;-71
2021/09/29 03:16:35;;;;;;;16.05;7.50;;;;;;;10.69;100.00;100172.50;1614823;88;20960;-71
2021/09/29 03:19:04;;;;;;;11.73;6.92;;;;;;;10.67;100.00;100170.28;1614698;88;20946;-71
2021/09/29 03:21:33;;;;;;;16.00;7.08;;;;;;;10.65;100.00;100172.45;1615142;88;21441;-66
2021/09/29 03:24:01;;;;;;;18.07;7.97;;;;;;;10.63;100.00;100167.59;1614605;87;21476;-65
2021/09/29 03:26:32;;;;;;;13.00;6.87;;;;;;;10.66;100.00;100175.11;1612723;88;20974;-68
2021/09/29 03:29:00;;;;;;;15.05;7.45;;;;;;;10.69;100.00;100176.89;1611169;89;21478;-73
2021/09/29 03:31:29;;;;;;;16.07;8.08;;;;;;;10.68;100.00;100174.69;1610928;89;21512;-73
2021/09/29 03:34:00;;;;;;;22.45;8.30;;;;;;;10.69;100.00;100176.45;1611265;89;20946;-73
2021/09/29 03:36:29;;;;;;;14.78;7.97;;;;;;;10.68;100.00;100173.36;1610940;88;21450;-74
2021/09/29 03:39:00;;;;;;;13.28;7.92;;;;;;;10.66;100.00;100176.86;1600117;89;21080;-66
2021/09/29 03:41:30;;;;;;;21.12;8.75;;;;;;;10.64;100.00;100174.20;1610848;89;21484;-69
2021/09/29 03:43:58;;;;;;;17.85;8.38;;;;;;;10.65;100.00;100169.37;1610766;88;21133;-66
2021/09/29 03:47:07;;;;;;;14.38;7.95;;;;;;;10.66;100.00;100166.30;1610427;89;21618;-73
2021/09/29 03:49:36;;;;;;;19.87;8.30;;;;;;;10.64;100.00;100172.00;1610146;89;21281;-73
2021/09/29 03:52:06;;;;;;;13.93;8.25;;;;;;;10.60;100.00;100172.84;1610701;89;20989;-70
2021/09/29 03:54:39;;;;;;;22.00;9.23;;;;;;;10.57;100.00;100172.37;1608774;89;21106;-70
2021/09/29 03:57:07;;;;;;;12.53;7.55;;;;;;;10.56;100.00;100177.64;1609569;89;21017;-71
2021/09/29 03:59:37;;;;;;;15.65;7.87;;;;;;;10.58;100.00;100178.53;1609349;88;20961;-71
2021/09/29 04:02:06;;;;;;;18.15;8.13;;;;;;;10.57;100.00;100183.36;1609625;89;22267;-72
2021/09/29 04:04:34;;;;;;;15.25;8.65;;;;;;;10.53;100.00;100181.12;1609991;89;20942;-71
2021/09/29 04:07:09;;;;;;;17.50;7.87;;;;;;;10.50;100.00;100188.12;1609978;89;21053;-71
2021/09/29 04:09:36;;;;;;;15.40;8.53;;;;;;;10.45;100.00;100192.47;1609134;89;21057;-71
2021/09/29 04:12:08;;;;;;;21.33;9.23;;;;;;;10.39;100.00;100194.58;1611339;89;20954;-72
2021/09/29 04:14:36;;;;;;;13.53;8.08;;;;;;;10.35;100.00;100200.25;1610891;89;21180;-72
2021/09/29 04:17:06;;;;;;;20.43;9.48;;;;;;;10.32;100.00;100196.25;1610834;89;20918;-71
2021/09/29 04:19:35;;;;;;;17.32;8.88;;;;;;;10.29;100.00;100201.93;1610947;89;20954;-72
2021/09/29 04:22:03;;;;;;;15.78;8.33;;;;;;;10.24;100.00;100199.67;1610860;89;20986;-72
2021/09/29 04:24:32;;;;;;;15.45;8.45;;;;;;;10.19;100.00;100202.22;1610919;89;21048;-70
2021/09/29 04:27:05;;;;;;;16.32;8.43;;;;;;;10.14;100.00;100206.98;1612894;87;21158;-72
2021/09/29 04:29:33;;;;;;;;;;;;;;;10.09;100.00;100205.61;1617120;88;20944;-72
2021/09/29 04:32:01;;;;;;;15.70;8.98;;;;;;;10.07;100.00;100211.30;1614963;88;20131;-71
2021/09/29 04:34:31;;;;;;;16.12;8.93;;;;;;;10.02;100.00;100219.15;1614657;88;20992;-70
2021/09/29 04:36:59;;;;;;;15.45;9.30;;;;;;;9.96;100.00;100205.89;1615040;88;21648;-70
2021/09/29 04:39:27;;;;;;;17.15;9.95;;;;;;;9.91;100.00;100212.81;1614711;88;21174;-71
2021/09/29 04:41:57;;;;;;;16.32;9.23;;;;;;;9.88;100.00;100211.45;1614884;88;20934;-72
2021/09/29 04:44:27;;;;;;;22.50;9.18;;;;;;;9.86;100.00;100209.23;1614757;88;21496;-72
2021/09/29 04:47:12;;;;;;;19.60;10.00;;;;;;;9.86;100.00;100213.19;1615061;88;21505;-72
2021/09/29 04:49:39;;;;;;;19.65;9.63;;;;;;;9.86;100.00;100213.19;1613555;88;20982;-72
2021/09/29 04:52:12;;;;;;;15.65;10.30;;;;;;;9.84;100.00;100217.55;1614808;88;22081;-72
2021/09/29 04:54:43;;;;;;;25.00;11.18;;;;;;;9.82;100.00;100221.91;1615003;88;20949;-70
2021/09/29 04:57:11;;;;;;;17.73;9.48;;;;;;;9.79;100.00;100221.88;1614834;88;21554;-70
2021/09/29 04:59:42;;;;;;;17.50;9.20;;;;;;;9.78;100.00;100224.94;1614764;88;21006;-72
2021/09/29 05:02:14;;;;;;;21.93;9.90;;;;;;;9.81;100.00;100230.69;1614784;88;21528;-71
2021/09/29 05:04:44;;;;;;;23.85;11.57;;;;;;;9.82;100.00;100230.25;1614791;88;21496;-72
2021/09/29 05:07:17;;;;;;;20.97;11.25;;;;;;;9.83;100.00;100228.07;1614635;88;21489;-72
2021/09/29 05:09:46;;;;;;;23.80;11.65;;;;;;;9.82;100.00;100232.45;1614920;88;20998;-70
2021/09/29 05:12:22;;;;;;;16.75;11.00;;;;;;;9.82;100.00;100228.50;1614783;88;20957;-71
2021/09/29 05:14:51;;;;;;;17.67;10.18;;;;;;;9.83;100.00;100234.23;1611080;88;21053;-72
2021/09/29 05:17:19;;;;;;;20.90;10.65;;;;;;;9.86;100.00;100231.64;1614685;88;21232;-72
2021/09/29 05:19:47;;;;;;;16.90;11.05;;;;;;;9.87;100.00;100229.45;1614567;88;20949;-72
2021/09/29 05:22:15;;;;;;;22.87;10.28;;;;;;;9.86;100.00;100239.55;1614650;88;21005;-72
2021/09/29 05:24:43;;;;;;;15.90;9.93;;;;;;;9.85;100.00;100239.09;1614777;87;20973;-72
2021/09/29 05:27:12;;;;;;;15.93;10.85;;;;;;;9.87;100.00;100245.70;1614774;88;20985;-70
2021/09/29 05:29:42;;;;;;;15.83;10.90;;;;;;;9.89;100.00;100254.08;1614802;88;21185;-70
2021/09/29 05:32:11;;;;;;;21.70;11.03;;;;;;;9.89;100.00;100248.81;1586211;89;20946;-70
2021/09/29 05:34:39;;;;;;;20.12;11.93;;;;;;;9.91;100.00;100253.67;1614736;88;21464;-72
2021/09/29 05:37:07;;;;;;;14.93;10.95;;;;;;;9.89;100.00;100254.52;1614875;88;21061;-72
2021/09/29 05:39:36;;;;;;;13.95;9.80;;;;;;;9.89;100.00;100257.15;1614717;88;21599;-72
2021/09/29 05:42:05;;;;;;;17.60;10.53;;;;;;;9.91;100.00;100264.21;1614672;88;21274;-72
2021/09/29 05:44:37;;;;;;;16.07;9.73;;;;;;;9.97;100.00;100272.23;1614635;88;21008;-72
2021/09/29 05:47:06;;;;;;;23.50;11.50;;;;;;;9.97;100.00;100269.60;1614839;88;21075;-69
2021/09/29 05:49:38;;;;;;;12.93;9.25;;;;;;;9.99;100.00;100274.47;1614613;88;21497;-72
2021/09/29 05:52:07;;;;;;;19.37;10.05;;;;;;;10.01;100.00;100280.64;1614828;88;21021;-72
2021/09/29 05:54:36;;;;;;;14.45;9.88;;;;;;;10.07;100.00;100289.95;1614648;88;21175;-72
2021/09/29 05:57:05;;;;;;;18.37;9.00;;;;;;;10.12;100.00;100287.81;1614846;88;21461;-72
2021/09/29 05:59:37;;;;;;;19.62;10.50;;;;;;;10.13;100.00;100290.91;1614863;88;20913;-72
2021/09/29 06:02:05;;;;;;;14.50;9.93;;;;;;;10.14;100.00;100291.36;1614654;88;21010;-72
2021/09/29 06:04:33;;;;;;;14.13;7.70;;;;;;;10.13;100.00;100291.78;1614685;88;20990;-71
2021/09/29 06:07:03;;;;;;;9.13;6.87;;;;;;;10.14;100.00;100300.16;1614767;88;21812;-72
2021/09/29 06:09:31;;;;;;;11.65;7.95;;;;;;;10.15;100.00;100295.33;1586126;88;21004;-71
2021/09/29 06:11:59;;;;;;;28.30;8.65;;;;;;;10.18;100.00;100297.13;1614712;88;21044;-72
2021/09/29 06:14:27;;;;;;;14.13;8.33;;;;;;;10.17;100.00;100294.92;1614627;87;20933;-72
2021/09/29 06:17:00;;;;;;;15.45;7.85;;;;;;;10.21;100.00;100303.80;1614680;88;20913;-72
2021/09/29 06:19:25;;;;;;;10.70;6.97;;;;;;;10.25;100.00;100301.65;1614316;88;21175;-72
2021/09/29 06:21:53;;;;;;;9.38;6.60;;;;;;;10.27;100.00;100302.55;1614579;88;20961;-70
2021/09/29 06:24:22;;;;;;;13.28;7.28;;;;;;;10.28;100.00;100295.09;1614651;88;20950;-72
2021/09/29 06:26:50;;;;;;;10.88;6.92;;;;;;;10.26;100.00;100296.83;1613910;88;21097;-72
2021/09/29 06:29:18;;;;;;;11.18;6.60;;;;;;;10.27;100.00;100302.13;1610843;89;20933;-71
2021/09/29 06:31:52;;;;;;;10.45;6.70;;;;;;;10.29;100.00;100300.39;1610829;89;22042;-71
2021/09/29 06:34:20;;;;;;;8.95;6.33;;;;;;;10.34;100.00;100305.30;1610884;89;20993;-71
2021/09/29 06:36:48;;;;;;;8.55;6.47;;;;;;;10.38;100.00;100304.47;1611041;89;20958;-72
2021/09/29 06:39:17;;;;;;;8.58;6.78;;;;;;;10.40;100.00;100304.48;1610907;89;21002;-72
2021/09/29 06:41:45;;;;;;;9.95;6.55;;;;;;;10.40;100.00;100308.05;1610838;87;20948;-71
2021/09/29 06:44:14;;;;;;;14.65;6.60;;;;;;;10.43;100.00;100307.63;1610796;89;21169;-72
2021/09/29 06:46:42;;;;;;;10.72;6.30;;;;;;;10.45;100.00;100313.38;1610961;89;21073;-72
2021/09/29 06:49:11;;;;;;;11.10;6.45;;;;;;;10.48;100.00;100304.19;1610751;89;21079;-72
2021/09/29 06:51:39;;;;;;;9.05;6.42;;;;;;;10.53;100.00;100301.59;1610752;89;20961;-72
2021/09/29 06:54:07;;;;;;;8.95;6.97;;;;;;;10.56;100.00;100307.80;1610905;89;20998;-72
2021/09/29 06:56:35;;;;;;;9.30;6.78;;;;;;;10.59;100.00;100312.23;1611093;89;21153;-72
2021/09/29 06:59:04;;;;;;;13.88;8.03;;;;;;;10.60;100.00;100309.61;1610713;89;20950;-72
2021/09/29 07:01:32;;;;;;;10.43;7.10;;;;;;;10.64;100.00;100313.17;1611002;89;21536;-72
2021/09/29 07:04:00;;;;;;;12.60;7.85;;;;;;;10.69;100.00;100315.00;1610835;89;20985;-72
2021/09/29 07:06:29;;;;;;;7.97;6.95;;;;;;;10.75;100.00;100313.30;1610986;89;21141;-72
2021/09/29 07:08:57;;;;;;;10.08;7.87;;;;;;;10.77;100.00;100315.09;1610774;89;21173;-70
2021/09/29 07:11:25;;;;;;;9.18;7.25;;;;;;;10.81;100.00;100316.89;1610702;89;21057;-71
2021/09/29 07:13:52;;;;;;;7.90;6.50;;;;;;;10.83;100.00;100315.59;1610746;89;21058;-70
2021/09/29 07:16:25;;;;;;;10.38;7.08;;;;;;;10.86;100.00;100313.87;1610876;89;21010;-71
2021/09/29 07:18:55;;;;;;;8.58;6.92;;;;;;;10.95;100.00;100315.32;1610905;89;20949;-70
2021/09/29 07:21:21;;;;;;;8.25;6.80;;;;;;;11.02;100.00;100316.27;1610707;89;21178;-70
2021/09/29 07:23:51;;;;;;;8.93;6.62;;;;;;;11.08;100.00;100320.73;1610159;89;21517;-70
2021/09/29 07:26:20;;;;;;;12.23;6.90;;;;;;;11.12;100.00;100316.81;1610739;89;21005;-70
2021/09/29 07:28:48;;;;;;;10.10;6.58;;;;;;;11.17;100.00;100315.54;1613767;88;21020;-70
2021/09/29 07:31:17;;;;;;;10.03;6.62;;;;;;;11.23;100.00;100319.13;1614624;87;21024;-70
2021/09/29 07:33:45;;;;;;;9.63;7.42;;;;;;;11.30;100.00;100321.39;1614932;88;21769;-70
2021/09/29 07:36:13;;;;;;;9.78;6.85;;;;;;;11.38;100.00;100326.78;1614614;88;20909;-70
2021/09/29 07:38:41;;;;;;;8.68;6.90;;;;;;;11.40;100.00;100321.08;1614613;88;21500;-70
2021/09/29 07:41:10;;;;;;;12.10;7.55;;;;;;;11.44;100.00;100322.88;1614558;88;21628;-70
2021/09/29 07:43:40;;;;;;;10.65;7.08;;;;;;;11.46;100.00;100323.33;1614610;88;21172;-72
2021/09/29 07:46:08;;;;;;;7.55;6.37;;;;;;;11.48;100.00;100324.23;1614734;88;21826;-71
2021/09/29 07:48:36;;;;;;;30.88;8.08;;;;;;;11.54;100.00;100323.40;1614538;88;20985;-70
2021/09/29 07:51:05;;;;;;;12.63;7.42;;;;;;;11.63;100.00;100327.44;1614669;88;20950;-70
2021/09/29 07:53:38;;;;;;;8.70;6.90;;;;;;;11.69;100.00;100332.77;1614672;88;20986;-70
2021/09/29 07:56:06;;;;;;;10.13;7.08;;;;;;;11.73;100.00;100325.76;1614711;88;21465;-71
2021/09/29 07:58:34;;;;;;;28.17;7.67;;;;;;;11.77;100.00;100329.75;1614637;88;21161;-71
2021/09/29 08:01:02;;;;;;;14.03;8.08;;;;;;;11.78;100.00;100330.23;1614515;88;20918;-70
2021/09/29 08:03:31;;;;;;;9.28;7.25;;;;;;;11.80;100.00;100334.22;1614591;88;21600;-70
2021/09/29 08:06:03;;;;;;;8.85;7.25;;;;;;;11.82;100.00;100337.75;1614765;88;21044;-71
2021/09/29 08:08:31;;;;;;;12.58;7.20;;;;;;;11.87;100.00;100341.36;1614680;88;21547;-71
2021/09/29 08:11:01;;;;;;;11.85;7.45;;;;;;;11.90;100.00;100334.33;1614608;88;21182;-70
2021/09/29 08:13:28;;;;;;;11.22;7.15;;;;;;;11.93;100.00;100336.11;1614539;88;21599;-71
2021/09/29 08:15:56;;;;;;;10.60;7.70;;;;;;;11.95;100.00;100327.31;1614875;88;21509;-70
2021/09/29 08:18:26;;;;;;;8.83;7.40;;;;;;;11.97;100.00;100329.97;1614707;88;21006;-70
2021/09/29 08:20:57;;;;;;;12.75;7.58;;;;;;;11.97;100.00;100325.56;1614596;88;20941;-72
2021/09/29 08:23:35;;;;;;;11.85;7.25;;;;;;;12.01;100.00;100328.23;1614905;88;21169;-70
2021/09/29 08:28:46;;;;;;;8.80;7.83;;;;;;;12.05;100.00;100319.00;1612685;88;20962;-72
2021/09/29 08:36:35;;;;;;;15.10;8.80;;;;;;;12.01;100.00;100326.47;1610902;89;21144;-72
2021/09/29 08:39:13;;;;;;;12.25;7.90;;;;;;;12.02;100.00;100330.88;1610203;89;20906;-72
2021/09/29 08:42:01;;;;;;;12.03;7.30;;;;;;;12.05;100.00;100330.91;1609845;89;21002;-72
2021/09/29 08:44:30;;;;;;;10.13;7.70;;;;;;;12.08;100.00;100327.39;1609109;89;21049;-72
2021/09/29 08:49:39;;;;;;;13.20;6.90;;;;;;;12.10;100.00;100324.32;1611310;89;21983;-72
2021/09/29 08:54:54;;;;;;;12.58;6.92;;;;;;;12.08;100.00;100324.75;1605406;89;20993;-72
2021/09/29 09:16:45;;;;;;;10.30;7.92;;;;;;;12.36;100.00;100312.16;1610883;89;21200;-70
2021/09/29 09:19:14;;;;;;;17.40;8.40;;;;;;;12.37;100.00;100318.34;1610955;89;21499;-70
2021/09/29 09:21:54;;;;;;;10.15;7.22;;;;;;;12.37;100.00;100310.39;1610785;89;21038;-70
2021/09/29 09:24:24;;;;;;;10.48;7.67;;;;;;;12.38;100.00;100307.76;1588502;89;21001;-71
2021/09/29 09:27:07;;;;;;;23.35;8.63;;;;;;;12.44;100.00;100309.55;1610963;89;21041;-71
2021/09/29 09:29:47;;;;;;;10.50;8.73;;;;;;;12.47;100.00;100309.56;1614066;88;21145;-71
2021/09/29 09:32:16;;;;;;;10.05;8.05;;;;;;;12.51;100.00;100303.41;1614291;88;20933;-70
2021/09/29 09:34:45;;;;;;;10.80;7.60;;;;;;;12.52;100.00;100304.73;1614963;88;20909;-71
2021/09/29 09:37:15;;;;;;;10.85;8.60;;;;;;;12.51;100.00;100304.29;1614749;88;20926;-71
2021/09/29 09:39:43;;;;;;;9.98;8.48;;;;;;;12.51;100.00;100307.38;1614950;88;20949;-71
2021/09/29 09:42:11;;;;;;;14.43;8.08;;;;;;;12.52;100.00;100302.53;1614631;88;21184;-71
2021/09/29 09:44:43;;;;;;;14.78;7.53;;;;;;;12.53;100.00;100301.21;1614673;87;21028;-70
2021/09/29 09:47:14;;;;;;;;;;;;;;;12.60;100.00;100296.39;1617127;88;21002;-71
2021/09/29 09:49:53;;;;;;;9.10;7.08;;;;;;;12.69;100.00;100300.83;1614732;88;20179;-70
2021/09/29 09:52:35;;;;;;;8.33;6.97;;;;;;;12.79;100.00;100307.08;1614697;88;20996;-70
2021/09/29 09:55:17;;;;;;;8.33;7.53;;;;;;;12.85;100.00;100298.70;1615056;88;22287;-70
2021/09/29 09:57:47;;;;;;;13.08;8.03;;;;;;;12.94;100.00;100307.11;1614848;88;20934;-71
2021/09/29 10:00:18;;;;;;;14.50;7.47;;;;;;;13.01;100.00;100308.02;1586716;88;21464;-71
2021/09/29 10:02:47;;;;;;;13.78;8.08;;;;;;;13.07;100.00;100310.68;1614673;88;20914;-71
2021/09/29 10:05:18;;;;;;;14.15;7.90;;;;;;;13.10;100.00;100301.41;1615063;88;21522;-70
2021/09/29 10:07:49;;;;;;;11.20;7.05;;;;;;;13.14;100.00;100307.16;1614763;88;22095;-70
2021/09/29 10:13:30;;;;;;;17.98;7.33;;;;;;;13.23;100.00;100296.61;1614727;88;21548;-70
2021/09/29 10:27:39;;;;;;;13.35;6.87;;;;;;;13.63;100.00;100290.03;1614663;88;21137;-70
2021/09/29 10:30:13;;;;;;;9.03;7.42;;;;;;;13.65;100.00;100294.45;1611160;89;21009;-71
2021/09/29 10:32:46;;;;;;;10.45;7.70;;;;;;;13.72;100.00;100292.71;1610910;89;20970;-70
2021/09/29 10:43:33;;;;;;;10.60;7.25;;;;;;;13.89;100.00;100288.71;1610771;89;20937;-69
2021/09/29 10:48:45;;;;;;;12.55;7.70;;;;;;;13.94;100.00;100284.28;1610782;89;21255;-70
2021/09/29 11:11:04;;;;;;;12.98;8.35;;;;;;;14.16;100.00;100280.25;1610808;89;20969;-71
2021/09/29 11:30:02;;;;;;;13.75;7.65;;;;;;;14.95;100.00;100264.50;1612906;88;21465;-71
2021/09/29 11:32:31;;;;;;;9.50;8.03;;;;;;;15.07;100.00;100263.09;1612920;88;21504;-71
2021/09/29 11:34:58;;;;;;;14.28;9.08;;;;;;;15.16;100.00;100260.84;1613862;88;20994;-70
2021/09/29 11:37:58;;;;;;;10.38;6.83;;;;;;;15.26;100.00;100259.89;1614549;88;20962;-70
2021/09/29 12:08:08;;;;;;;8.95;6.20;;;;;;;15.81;100.00;100242.17;1615087;88;21576;-71
2021/09/29 12:10:30;;;;;;;13.38;6.15;;;;;;;15.92;100.00;100242.06;1614023;88;21151;-71
2021/09/29 12:13:01;;;;;;;8.45;5.92;;;;;;;15.97;100.00;100238.91;1614701;87;21080;-70
2021/09/29 12:15:29;;;;;;;10.98;6.33;;;;;;;15.92;100.00;100238.07;1615078;88;21061;-71
2021/09/29 12:17:59;;;;;;;7.30;5.95;;;;;;;15.87;100.00;100240.78;1614698;88;21045;-71
2021/09/29 12:20:29;;;;;;;9.03;6.33;;;;;;;15.87;100.00;100234.13;1583404;88;21048;-71
2021/09/29 12:22:59;;;;;;;9.55;6.10;;;;;;;15.85;100.00;100231.94;1614649;88;21181;-71
2021/09/29 12:25:34;;;;;;;7.08;5.75;;;;;;;15.78;100.00;100230.69;1615033;88;20913;-72
2021/09/29 12:28:34;;;;;;;8.63;6.85;;;;;;;15.74;100.00;100229.38;1614342;88;21037;-71
2021/09/29 12:33:57;;;;;;;20.25;9.85;;;;;;;16.00;100.00;100233.55;1622151;88;20970;-71
2021/09/29 12:36:30;;;;;;;14.55;9.20;;;;;;;16.24;100.00;100229.30;1620577;88;21183;-71
2021/09/29 12:38:59;;;;;;;11.22;9.30;;;;;;;16.38;100.00;100234.02;1621626;88;21072;-70
2021/09/29 12:41:28;;;;;;;13.68;9.63;;;;;;;16.44;100.00;100231.72;1621822;88;21139;-71
2021/09/29 12:44:08;;;;;;;12.47;9.78;;;;;;;16.42;100.00;100236.19;1622091;88;20992;-71
2021/09/29 12:46:36;;;;;;;20.45;10.68;;;;;;;16.32;100.00;100234.53;1621887;88;20940;-70
2021/09/29 12:49:12;;;;;;;19.67;11.28;;;;;;;16.18;100.00;100230.70;1621316;88;21513;-72
2021/09/29 12:51:58;;;;;;;52.83;14.98;;;;;;;16.05;100.00;100243.70;1621536;88;21028;-69
2021/09/29 12:54:21;;;;;;;28.20;12.53;;;;;;;15.92;100.00;100242.06;1619289;88;21034;-69
2021/09/29 12:56:51;;;;;;;40.17;13.68;;;;;;;15.74;100.00;100242.69;1620602;88;21658;-72
2021/09/29 12:59:20;;;;;;;39.05;14.73;;;;;;;15.60;100.00;100251.66;1621056;88;21133;-70
2021/09/29 13:01:49;;;;;;;48.30;14.83;;;;;;;15.44;100.00;100247.77;1621482;86;21234;-70
2021/09/29 13:04:21;;;;;;;73.15;18.67;;;;;;;15.34;100.00;100246.53;1604009;88;21504;-72
2021/09/29 13:06:47;;;;;;;70.55;17.60;;;;;;;15.25;100.00;100251.48;1594754;90;20988;-73
2021/09/29 13:09:15;;;;;;;18.62;10.50;;;;;;;15.21;100.00;100248.85;1595236;90;21051;-75
2021/09/29 13:11:43;;;;;;;16.65;10.20;;;;;;;15.17;100.00;100249.32;1595104;88;21561;-77
2021/09/29 13:14:11;;;;;;;17.50;9.98;;;;;;;15.14;100.00;100246.69;1570965;90;21162;-76
2021/09/29 13:16:38;;;;;;;24.77;11.22;;;;;;;15.11;100.00;100243.57;1570228;90;21112;-78
2021/09/29 13:19:19;;;;;;;17.75;10.53;;;;;;;15.08;100.00;100244.04;1590176;89;20964;-78
2021/09/29 13:21:57;;;;;;;16.27;9.48;;;;;;;15.04;100.00;100247.61;1597040;88;20985;-77
2021/09/29 13:27:24;;;;;;;36.35;12.58;;;;;;;14.94;100.00;100240.15;1592245;89;21533;-72
2021/09/29 13:36:32;;;;;;;26.77;11.78;;;;;;;14.69;100.00;100248.72;1590502;89;21003;-69
2021/09/29 13:37:43;;;;;;;31.55;12.30;;;;;;;14.60;100.00;100248.73;1612129;89;20927;-67
2021/09/29 13:40:12;;;;;;;27.65;12.37;;;;;;;14.51;100.00;100249.22;1618146;86;21128;-68